createdAt,value
2018-02-24T00:00:27.915Z,1048.48
2018-02-24T00:01:27.894Z,1048.52
2018-02-24T00:02:27.875Z,1048.54
2018-02-24T00:03:27.859Z,1048.48
2018-02-24T00:04:27.837Z,1048.54
2018-02-24T00:05:27.817Z,1048.49
2018-02-24T00:06:27.797Z,1048.49
2018-02-24T00:07:27.783Z,1048.5
2018-02-24T00:08:27.758Z,1048.46
2018-02-24T00:09:27.739Z,1048.46
2018-02-24T00:10:27.725Z,1048.45
2018-02-24T00:11:27.704Z,1048.43
2018-02-24T00:12:27.681Z,1048.47
2018-02-24T00:13:27.661Z,1048.43
2018-02-24T00:14:27.642Z,1048.45
2018-02-24T00:15:27.625Z,1048.45
2018-02-24T00:16:27.608Z,1048.43
2018-02-24T00:17:27.585Z,1048.43
2018-02-24T00:18:27.567Z,1048.42
2018-02-24T00:19:27.545Z,1048.42
2018-02-24T00:20:27.526Z,1048.42
2018-02-24T00:21:27.506Z,1048.4
2018-02-24T00:22:27.487Z,1048.45
2018-02-24T00:23:27.467Z,1048.43
2018-02-24T00:24:27.450Z,1048.43
2018-02-24T00:25:27.430Z,1048.43
2018-02-24T00:26:27.411Z,1048.42
2018-02-24T00:27:27.393Z,1048.43
2018-02-24T00:28:27.378Z,1048.43
2018-02-24T00:29:27.351Z,1048.48
2018-02-24T00:30:27.335Z,1048.43
2018-02-24T00:31:27.316Z,1048.51
2018-02-24T00:32:27.293Z,1048.48
2018-02-24T00:33:27.277Z,1048.48
2018-02-24T00:34:27.255Z,1048.46
2018-02-24T00:35:27.239Z,1048.53
2018-02-24T00:36:27.216Z,1048.53
2018-02-24T00:37:27.197Z,1048.53
2018-02-24T00:38:27.177Z,1048.53
2018-02-24T00:39:27.157Z,1048.5
2018-02-24T00:40:27.138Z,1048.47
2018-02-24T00:41:27.132Z,1048.5
2018-02-24T00:42:27.107Z,1048.47
2018-02-24T00:43:27.082Z,1048.5
2018-02-24T00:44:27.061Z,1048.44
2018-02-24T00:45:27.042Z,1048.45
2018-02-24T00:46:27.021Z,1048.43
2018-02-24T00:47:27.004Z,1048.45
2018-02-24T00:48:26.984Z,1048.42
2018-02-24T00:49:26.964Z,1048.41
2018-02-24T00:50:26.948Z,1048.38
2018-02-24T00:51:26.925Z,1048.36
2018-02-24T00:52:26.907Z,1048.32
2018-02-24T00:53:26.885Z,1048.34
2018-02-24T00:54:26.866Z,1048.33
2018-02-24T00:55:26.847Z,1048.32
2018-02-24T00:56:26.831Z,1048.33
2018-02-24T00:57:26.810Z,1048.3
2018-02-24T00:58:26.792Z,1048.28
2018-02-24T00:59:26.769Z,1048.32
2018-02-24T01:00:26.751Z,1048.31
2018-02-24T01:01:26.729Z,1048.33
2018-02-24T01:02:26.713Z,1048.33
2018-02-24T01:03:26.703Z,1048.32
2018-02-24T01:04:26.674Z,1048.29
2018-02-24T01:05:26.653Z,1048.25
2018-02-24T01:06:26.635Z,1048.24
2018-02-24T01:07:26.616Z,1048.18
2018-02-24T01:08:26.598Z,1048.24
2018-02-24T01:09:26.577Z,1048.23
2018-02-24T01:10:26.557Z,1048.22
2018-02-24T01:11:26.536Z,1048.22
2018-02-24T01:12:26.517Z,1048.23
2018-02-24T01:13:26.497Z,1048.23
2018-02-24T01:14:26.481Z,1048.22
2018-02-24T01:15:26.458Z,1048.22
2018-02-24T01:16:26.439Z,1048.24
2018-02-24T01:17:26.420Z,1048.19
2018-02-24T01:18:26.400Z,1048.24
2018-02-24T01:19:26.380Z,1048.25
2018-02-24T01:20:26.365Z,1048.21
2018-02-24T01:21:26.345Z,1048.24
2018-02-24T01:22:26.324Z,1048.2
2018-02-24T01:23:26.303Z,1048.22
2018-02-24T01:24:26.284Z,1048.22
2018-02-24T01:25:26.271Z,1048.21
2018-02-24T01:26:26.248Z,1048.16
2018-02-24T01:27:26.234Z,1048.18
2018-02-24T01:28:26.210Z,1048.17
2018-02-24T01:29:26.188Z,1048.2
2018-02-24T01:30:26.167Z,1048.23
2018-02-24T01:31:26.148Z,1048.25
2018-02-24T01:32:26.131Z,1048.23
2018-02-24T01:33:26.114Z,1048.23
2018-02-24T01:34:26.090Z,1048.2
2018-02-24T01:35:26.076Z,1048.18
2018-02-24T01:36:26.056Z,1048.17
2018-02-24T01:37:26.032Z,1048.15
2018-02-24T01:38:26.023Z,1048.15
2018-02-24T01:39:25.999Z,1048.18
2018-02-24T01:40:25.974Z,1048.17
2018-02-24T01:41:25.954Z,1048.19
2018-02-24T01:42:25.970Z,1048.18
2018-02-24T01:43:25.916Z,1048.16
2018-02-24T01:44:25.901Z,1048.17
2018-02-24T01:45:25.886Z,1048.15
2018-02-24T01:46:25.857Z,1048.15
2018-02-24T01:47:25.838Z,1048.17
2018-02-24T01:48:25.817Z,1048.14
2018-02-24T01:49:26.061Z,1048.15
2018-02-24T01:50:25.779Z,1048.16
2018-02-24T01:51:25.762Z,1048.14
2018-02-24T01:52:25.743Z,1048.11
2018-02-24T01:53:25.724Z,1048.1
2018-02-24T01:54:25.701Z,1048.1
2018-02-24T01:55:25.684Z,1048.07
2018-02-24T01:56:25.663Z,1048.05
2018-02-24T01:57:25.649Z,1048.04
2018-02-24T01:58:25.624Z,1048.05
2018-02-24T01:59:25.603Z,1048.04
2018-02-24T02:00:25.584Z,1047.98
2018-02-24T02:01:25.565Z,1047.99
2018-02-24T02:02:25.547Z,1047.96
2018-02-24T02:03:25.526Z,1047.93
2018-02-24T02:04:25.509Z,1047.91
2018-02-24T02:05:25.490Z,1047.87
2018-02-24T02:06:25.468Z,1047.82
2018-02-24T02:07:25.449Z,1047.79
2018-02-24T02:08:25.431Z,1047.7
2018-02-24T02:09:25.414Z,1047.6
2018-02-24T02:10:25.390Z,1047.51
2018-02-24T02:11:25.372Z,1047.42
2018-02-24T02:12:25.357Z,1047.33
2018-02-24T02:13:25.334Z,1047.15
2018-02-24T02:14:25.313Z,1047
2018-02-24T02:15:25.293Z,1046.85
2018-02-24T02:16:25.275Z,1046.77
2018-02-24T02:17:25.257Z,1046.67
2018-02-24T02:18:25.236Z,1046.61
2018-02-24T02:19:25.216Z,1046.56
2018-02-24T02:20:25.198Z,1046.51
2018-02-24T02:21:25.178Z,1046.39
2018-02-24T02:22:25.159Z,1046.33
2018-02-24T02:23:25.144Z,1046.3
2018-02-24T02:24:25.122Z,1046.27
2018-02-24T02:25:25.105Z,1046.25
2018-02-24T02:26:25.095Z,1046.16
2018-02-24T02:27:25.066Z,1046.12
2018-02-24T02:28:25.050Z,1046.05
2018-02-24T02:29:25.030Z,1046
2018-02-24T02:30:25.017Z,1046
2018-02-24T02:31:24.994Z,1045.94
2018-02-24T02:32:24.976Z,1045.91
2018-02-24T02:33:24.952Z,1045.88
2018-02-24T02:34:24.946Z,1045.89
2018-02-24T02:35:24.916Z,1045.93
2018-02-24T02:36:24.898Z,1045.97
2018-02-24T02:37:24.883Z,1046.05
2018-02-24T02:38:24.861Z,1046.11
2018-02-24T02:39:24.842Z,1046.15
2018-02-24T02:40:24.825Z,1046.17
2018-02-24T02:41:24.806Z,1046.2
2018-02-24T02:42:24.789Z,1046.23
2018-02-24T02:43:24.773Z,1046.24
2018-02-24T02:44:24.752Z,1046.26
2018-02-24T02:45:24.735Z,1046.28
2018-02-24T02:46:24.716Z,1046.27
2018-02-24T02:47:24.697Z,1046.29
2018-02-24T02:48:24.679Z,1046.24
2018-02-24T02:49:24.661Z,1046.21
2018-02-24T02:50:24.645Z,1046.17
2018-02-24T02:51:24.627Z,1046.1
2018-02-24T02:52:24.608Z,1046.06
2018-02-24T02:53:24.589Z,1045.98
2018-02-24T02:54:24.573Z,1045.93
2018-02-24T02:55:24.559Z,1045.84
2018-02-24T02:56:24.534Z,1045.77
2018-02-24T02:57:24.517Z,1045.76
2018-02-24T02:58:24.498Z,1045.67
2018-02-24T02:59:24.484Z,1045.61
2018-02-24T03:00:24.466Z,1045.62
2018-02-24T03:01:24.444Z,1045.61
2018-02-24T03:02:24.426Z,1045.63
2018-02-24T03:03:24.411Z,1045.67
2018-02-24T03:04:24.395Z,1045.68
2018-02-24T03:05:24.373Z,1045.73
2018-02-24T03:06:24.359Z,1045.75
2018-02-24T03:07:24.341Z,1045.78
2018-02-24T03:08:24.323Z,1045.83
2018-02-24T03:09:24.305Z,1045.84
2018-02-24T03:10:24.289Z,1045.95
2018-02-24T03:11:24.268Z,1046.11
2018-02-24T03:12:24.250Z,1046.12
2018-02-24T03:13:24.247Z,1046.13
2018-02-24T03:14:24.216Z,1046.19
2018-02-24T03:15:24.201Z,1046.21
2018-02-24T03:16:24.183Z,1046.21
2018-02-24T03:17:24.165Z,1046.17
2018-02-24T03:18:24.161Z,1046.17
2018-02-24T03:19:24.128Z,1046.18
2018-02-24T03:20:24.113Z,1046.18
2018-02-24T03:21:24.094Z,1046.14
2018-02-24T03:22:24.076Z,1046.09
2018-02-24T03:23:24.061Z,1046.07
2018-02-24T03:24:24.038Z,1046.01
2018-02-24T03:25:24.020Z,1046
2018-02-24T03:26:24.006Z,1045.98
2018-02-24T03:27:23.986Z,1046.04
2018-02-24T03:28:23.970Z,1046.04
2018-02-24T03:29:23.949Z,1046.04
2018-02-24T03:30:23.931Z,1046.02
2018-02-24T03:31:23.980Z,1045.98
2018-02-24T03:32:23.908Z,1046.01
2018-02-24T03:33:23.884Z,1046.08
2018-02-24T03:34:23.860Z,1046.11
2018-02-24T03:35:23.843Z,1046.11
2018-02-24T03:36:23.832Z,1046.13
2018-02-24T03:37:23.808Z,1046.16
2018-02-24T03:38:23.789Z,1046.17
2018-02-24T03:39:23.772Z,1046.2
2018-02-24T03:40:23.758Z,1046.23
2018-02-24T03:41:23.736Z,1046.28
2018-02-24T03:42:23.718Z,1046.28
2018-02-24T03:43:23.704Z,1046.26
2018-02-24T03:44:23.693Z,1046.3
2018-02-24T03:45:23.665Z,1046.31
2018-02-24T03:46:23.651Z,1046.32
2018-02-24T03:47:23.631Z,1046.31
2018-02-24T03:48:23.616Z,1046.27
2018-02-24T03:49:23.595Z,1046.23
2018-02-24T03:50:23.582Z,1046.19
2018-02-24T03:51:23.566Z,1046.18
2018-02-24T03:52:23.542Z,1046.19
2018-02-24T03:53:23.523Z,1046.17
2018-02-24T03:54:23.509Z,1046.22
2018-02-24T03:55:23.491Z,1046.26
2018-02-24T03:56:23.470Z,1046.24
2018-02-24T03:57:23.452Z,1046.25
2018-02-24T03:58:23.435Z,1046.29
2018-02-24T03:59:23.421Z,1046.26
2018-02-24T04:00:23.400Z,1046.26
2018-02-24T04:01:23.381Z,1046.2
2018-02-24T04:02:23.364Z,1046.16
2018-02-24T04:03:23.349Z,1046.09
2018-02-24T04:04:23.328Z,1046.06
2018-02-24T04:05:23.312Z,1045.99
2018-02-24T04:06:23.294Z,1045.95
2018-02-24T04:07:23.274Z,1045.89
2018-02-24T04:08:23.258Z,1045.81
2018-02-24T04:09:23.243Z,1045.79
2018-02-24T04:10:23.225Z,1045.79
2018-02-24T04:11:23.208Z,1045.79
2018-02-24T04:12:23.190Z,1045.81
2018-02-24T04:13:23.171Z,1045.74
2018-02-24T04:14:23.155Z,1045.74
2018-02-24T04:15:23.134Z,1045.74
2018-02-24T04:16:23.192Z,1045.72
2018-02-24T04:17:23.099Z,1045.74
2018-02-24T04:18:23.082Z,1045.76
2018-02-24T04:19:23.065Z,1045.79
2018-02-24T04:20:23.051Z,1045.81
2018-02-24T04:21:23.032Z,1045.83
2018-02-24T04:22:23.014Z,1045.88
2018-02-24T04:23:22.999Z,1045.89
2018-02-24T04:24:22.978Z,1045.9
2018-02-24T04:25:22.963Z,1045.85
2018-02-24T04:26:22.947Z,1045.87
2018-02-24T04:27:22.930Z,1045.84
2018-02-24T04:28:22.910Z,1045.91
2018-02-24T04:29:22.892Z,1045.86
2018-02-24T04:30:22.878Z,1045.94
2018-02-24T04:31:22.857Z,1045.96
2018-02-24T04:32:22.841Z,1046
2018-02-24T04:33:22.822Z,1046.02
2018-02-24T04:34:22.807Z,1046.07
2018-02-24T04:35:22.789Z,1046.15
2018-02-24T04:36:22.774Z,1046.15
2018-02-24T04:37:22.754Z,1046.13
2018-02-24T04:38:22.739Z,1046.13
2018-02-24T04:39:22.723Z,1046.14
2018-02-24T04:40:22.706Z,1046.2
2018-02-24T04:41:22.688Z,1046.19
2018-02-24T04:42:22.667Z,1046.17
2018-02-24T04:43:22.651Z,1046.19
2018-02-24T04:44:22.638Z,1046.18
2018-02-24T04:45:22.616Z,1046.19
2018-02-24T04:46:22.601Z,1046.19
2018-02-24T04:47:22.582Z,1046.22
2018-02-24T04:48:22.564Z,1046.25
2018-02-24T04:49:22.554Z,1046.25
2018-02-24T04:50:22.530Z,1046.26
2018-02-24T04:51:22.512Z,1046.28
2018-02-24T04:52:22.494Z,1046.3
2018-02-24T04:53:22.477Z,1046.3
2018-02-24T04:54:22.463Z,1046.32
2018-02-24T04:55:22.446Z,1046.41
2018-02-24T04:56:22.428Z,1046.48
2018-02-24T04:57:22.407Z,1046.43
2018-02-24T04:58:22.390Z,1046.48
2018-02-24T04:59:22.375Z,1046.46
2018-02-24T05:00:22.359Z,1046.51
2018-02-24T05:01:22.339Z,1046.49
2018-02-24T05:02:22.321Z,1046.52
2018-02-24T05:03:22.303Z,1046.51
2018-02-24T05:04:22.286Z,1046.54
2018-02-24T05:05:22.271Z,1046.56
2018-02-24T05:06:22.250Z,1046.49
2018-02-24T05:07:22.236Z,1046.49
2018-02-24T05:08:22.218Z,1046.51
2018-02-24T05:09:22.201Z,1046.52
2018-02-24T05:10:22.183Z,1046.54
2018-02-24T05:11:22.163Z,1046.55
2018-02-24T05:12:22.146Z,1046.51
2018-02-24T05:13:22.128Z,1046.53
2018-02-24T05:14:22.114Z,1046.55
2018-02-24T05:15:22.097Z,1046.56
2018-02-24T05:16:22.075Z,1046.55
2018-02-24T05:17:22.062Z,1046.53
2018-02-24T05:18:22.041Z,1046.48
2018-02-24T05:19:22.027Z,1046.46
2018-02-24T05:20:22.009Z,1046.47
2018-02-24T05:21:21.989Z,1046.48
2018-02-24T05:22:21.974Z,1046.48
2018-02-24T05:23:21.954Z,1046.56
2018-02-24T05:24:21.936Z,1046.58
2018-02-24T05:25:21.919Z,1046.63
2018-02-24T05:26:21.901Z,1046.56
2018-02-24T05:27:21.896Z,1046.59
2018-02-24T05:28:21.869Z,1046.6
2018-02-24T05:29:21.849Z,1046.67
2018-02-24T05:30:21.832Z,1046.62
2018-02-24T05:31:21.814Z,1046.63
2018-02-24T05:32:21.798Z,1046.6
2018-02-24T05:33:21.780Z,1046.62
2018-02-24T05:34:21.765Z,1046.62
2018-02-24T05:35:21.748Z,1046.65
2018-02-24T05:36:21.736Z,1046.67
2018-02-24T05:37:21.714Z,1046.66
2018-02-24T05:38:21.692Z,1046.64
2018-02-24T05:39:21.675Z,1046.62
2018-02-24T05:40:21.657Z,1046.66
2018-02-24T05:41:21.640Z,1046.64
2018-02-24T05:42:21.622Z,1046.67
2018-02-24T05:43:21.604Z,1046.7
2018-02-24T05:44:21.589Z,1046.61
2018-02-24T05:45:21.570Z,1046.63
2018-02-24T05:46:21.551Z,1046.63
2018-02-24T05:47:21.534Z,1046.7
2018-02-24T05:48:21.518Z,1046.7
2018-02-24T05:49:21.500Z,1046.7
2018-02-24T05:50:21.484Z,1046.66
2018-02-24T05:51:21.467Z,1046.75
2018-02-24T05:52:21.450Z,1046.76
2018-02-24T05:53:21.429Z,1046.79
2018-02-24T05:54:21.415Z,1046.8
2018-02-24T05:55:21.397Z,1046.83
2018-02-24T05:56:21.380Z,1046.85
2018-02-24T05:57:21.358Z,1046.87
2018-02-24T05:58:21.344Z,1046.84
2018-02-24T05:59:21.327Z,1046.81
2018-02-24T06:00:21.309Z,1046.83
2018-02-24T06:01:21.288Z,1046.84
2018-02-24T06:02:21.274Z,1046.86
2018-02-24T06:03:21.253Z,1046.92
2018-02-24T06:04:21.236Z,1047.02
2018-02-24T06:05:21.220Z,1046.99
2018-02-24T06:06:21.204Z,1047.08
2018-02-24T06:07:21.185Z,1047.13
2018-02-24T06:08:21.165Z,1047.15
2018-02-24T06:09:21.147Z,1047.15
2018-02-24T06:10:21.132Z,1047.19
2018-02-24T06:11:21.111Z,1047.19
2018-02-24T06:12:21.094Z,1047.25
2018-02-24T06:13:21.079Z,1047.27
2018-02-24T06:14:21.062Z,1047.32
2018-02-24T06:15:21.042Z,1047.36
2018-02-24T06:16:21.045Z,1047.36
2018-02-24T06:17:21.009Z,1047.4
2018-02-24T06:18:20.988Z,1047.41
2018-02-24T06:19:20.970Z,1047.47
2018-02-24T06:20:20.953Z,1047.47
2018-02-24T06:21:20.936Z,1047.5
2018-02-24T06:22:20.918Z,1047.51
2018-02-24T06:23:20.899Z,1047.5
2018-02-24T06:24:20.883Z,1047.51
2018-02-24T06:25:20.867Z,1047.52
2018-02-24T06:26:20.844Z,1047.55
2018-02-24T06:27:20.827Z,1047.53
2018-02-24T06:28:20.810Z,1047.59
2018-02-24T06:29:20.794Z,1047.6
2018-02-24T06:30:20.773Z,1047.58
2018-02-24T06:31:20.759Z,1047.61
2018-02-24T06:32:20.741Z,1047.63
2018-02-24T06:33:20.720Z,1047.63
2018-02-24T06:34:20.708Z,1047.57
2018-02-24T06:35:20.688Z,1047.48
2018-02-24T06:36:20.668Z,1047.33
2018-02-24T06:37:20.648Z,1047.2
2018-02-24T06:38:20.631Z,1047.12
2018-02-24T06:39:20.616Z,1046.95
2018-02-24T06:40:20.597Z,1046.84
2018-02-24T06:41:20.630Z,1046.64
2018-02-24T06:42:20.562Z,1046.47
2018-02-24T06:43:20.542Z,1046.31
2018-02-24T06:44:20.526Z,1046.22
2018-02-24T06:45:20.509Z,1046.08
2018-02-24T06:46:20.488Z,1046.03
2018-02-24T06:47:20.474Z,1045.8
2018-02-24T06:48:20.453Z,1045.69
2018-02-24T06:49:20.438Z,1045.61
2018-02-24T06:50:20.419Z,1045.57
2018-02-24T06:51:20.402Z,1045.45
2018-02-24T06:52:20.389Z,1045.39
2018-02-24T06:53:20.370Z,1045.33
2018-02-24T06:54:20.354Z,1045.27
2018-02-24T06:55:20.335Z,1045.26
2018-02-24T06:56:20.319Z,1045.05
2018-02-24T06:57:20.307Z,1044.97
2018-02-24T06:58:20.287Z,1044.83
2018-02-24T06:59:20.271Z,1044.76
2018-02-24T07:00:20.255Z,1044.71
2018-02-24T07:01:20.239Z,1044.62
2018-02-24T07:02:20.226Z,1044.55
2018-02-24T07:03:20.211Z,1044.37
2018-02-24T07:04:20.192Z,1044.39
2018-02-24T07:05:20.179Z,1044.3
2018-02-24T07:06:20.163Z,1044.32
2018-02-24T07:07:20.149Z,1044.45
2018-02-24T07:08:20.131Z,1044.41
2018-02-24T07:09:20.120Z,1044.39
2018-02-24T07:10:20.100Z,1044.37
2018-02-24T07:11:20.089Z,1044.25
2018-02-24T07:12:20.072Z,1044.11
2018-02-24T07:13:20.058Z,1044.12
2018-02-24T07:14:20.045Z,1043.93
2018-02-24T07:15:20.029Z,1043.65
2018-02-24T07:16:20.013Z,1043.53
2018-02-24T07:17:20.000Z,1043.37
2018-02-24T07:18:20.035Z,1043.18
2018-02-24T07:19:19.968Z,1043.18
2018-02-24T07:20:19.957Z,1043.26
2018-02-24T07:21:19.943Z,1043.32
2018-02-24T07:22:19.925Z,1043.28
2018-02-24T07:23:19.915Z,1043.36
2018-02-24T07:24:19.897Z,1043.48
2018-02-24T07:25:19.887Z,1043.54
2018-02-24T07:26:19.873Z,1043.63
2018-02-24T07:27:19.857Z,1043.52
2018-02-24T07:28:19.847Z,1043.49
2018-02-24T07:29:19.841Z,1043.38
2018-02-24T07:30:19.815Z,1043.46
2018-02-24T07:31:19.800Z,1043.22
2018-02-24T07:32:19.786Z,1043.17
2018-02-24T07:33:19.776Z,1043.18
2018-02-24T07:34:19.762Z,1043.2
2018-02-24T07:35:19.747Z,1043.15
2018-02-24T07:36:19.732Z,1043.19
2018-02-24T07:37:19.721Z,1043.23
2018-02-24T07:38:19.705Z,1043.23
2018-02-24T07:39:19.693Z,1043.24
2018-02-24T07:40:19.677Z,1043.32
2018-02-24T07:41:19.667Z,1043.28
2018-02-24T07:42:19.651Z,1043.45
2018-02-24T07:43:19.640Z,1043.44
2018-02-24T07:44:19.626Z,1043.39
2018-02-24T07:45:19.608Z,1043.38
2018-02-24T07:46:19.601Z,1043.36
2018-02-24T07:47:19.584Z,1043.38
2018-02-24T07:48:19.569Z,1043.5
2018-02-24T07:49:19.558Z,1043.56
2018-02-24T07:50:19.540Z,1043.74
2018-02-24T07:51:19.530Z,1043.85
2018-02-24T07:52:19.513Z,1043.94
2018-02-24T07:53:19.500Z,1044.03
2018-02-24T07:54:19.486Z,1044.14
2018-02-24T07:55:19.475Z,1044.32
2018-02-24T07:56:19.462Z,1044.93
2018-02-24T07:57:19.446Z,1045.11
2018-02-24T07:58:19.431Z,1045.27
2018-02-24T07:59:19.422Z,1045.61
2018-02-24T08:00:19.404Z,1045.83
2018-02-24T08:01:19.388Z,1045.83
2018-02-24T08:02:19.373Z,1046.04
2018-02-24T08:03:19.360Z,1046.25
2018-02-24T08:04:19.387Z,1046.14
2018-02-24T08:05:19.328Z,1046.31
2018-02-24T08:06:19.316Z,1046.37
2018-02-24T08:07:19.299Z,1046.49
2018-02-24T08:08:19.325Z,1046.89
2018-02-24T08:09:19.268Z,1046.58
2018-02-24T08:10:19.252Z,1046.99
2018-02-24T08:11:19.241Z,1046.8
2018-02-24T08:12:19.222Z,1046.77
2018-02-24T08:13:19.205Z,1046.79
2018-02-24T08:14:19.193Z,1046.97
2018-02-24T08:15:19.176Z,1046.9
2018-02-24T08:16:19.164Z,1046.89
2018-02-24T08:17:19.169Z,1047.05
2018-02-24T08:18:19.130Z,1047.03
2018-02-24T08:19:19.110Z,1047.19
2018-02-24T08:20:19.096Z,1047.02
2018-02-24T08:21:19.077Z,1047.04
2018-02-24T08:22:19.061Z,1047.12
2018-02-24T08:23:19.047Z,1046.98
2018-02-24T08:24:19.028Z,1047.01
2018-02-24T08:25:19.012Z,1046.94
2018-02-24T08:26:19.000Z,1047.04
2018-02-24T08:27:18.979Z,1046.83
2018-02-24T08:28:18.962Z,1046.95
2018-02-24T08:29:18.946Z,1046.88
2018-02-24T08:30:18.931Z,1046.8
2018-02-24T08:31:18.913Z,1047.06
2018-02-24T08:32:18.896Z,1046.99
2018-02-24T08:33:18.880Z,1046.84
2018-02-24T08:34:18.867Z,1046.86
2018-02-24T08:35:18.847Z,1046.9
2018-02-24T08:36:18.831Z,1046.85
2018-02-24T08:37:18.816Z,1046.86
2018-02-24T08:38:18.797Z,1047.06
2018-02-24T08:39:18.834Z,1046.92
2018-02-24T08:40:18.764Z,1046.89
2018-02-24T08:41:18.751Z,1046.93
2018-02-24T08:42:18.735Z,1047.07
2018-02-24T08:43:18.715Z,1046.83
2018-02-24T08:44:18.704Z,1047.2
2018-02-24T08:45:18.682Z,1046.86
2018-02-24T08:46:18.668Z,1047.06
2018-02-24T08:47:18.649Z,1046.98
2018-02-24T08:48:18.635Z,1047.07
2018-02-24T08:49:18.615Z,1046.96
2018-02-24T08:50:18.600Z,1046.98
2018-02-24T08:51:18.583Z,1046.99
2018-02-24T08:52:18.566Z,1046.93
2018-02-24T08:53:18.553Z,1046.89
2018-02-24T08:54:18.537Z,1046.68
2018-02-24T08:55:18.517Z,1046.56
2018-02-24T08:56:18.501Z,1046.73
2018-02-24T08:57:18.484Z,1046.6
2018-02-24T08:58:18.471Z,1046.61
2018-02-24T08:59:18.450Z,1046.7
2018-02-24T09:00:18.434Z,1046.93
2018-02-24T09:01:18.418Z,1046.85
2018-02-24T09:02:18.403Z,1046.5
2018-02-24T09:03:18.385Z,1046.49
2018-02-24T09:04:18.375Z,1046.72
2018-02-24T09:05:18.354Z,1046.54
2018-02-24T09:06:18.342Z,1046.79
2018-02-24T09:07:18.323Z,1046.61
2018-02-24T09:08:18.308Z,1046.54
2018-02-24T09:09:18.292Z,1046.22
2018-02-24T09:10:18.271Z,1046.14
2018-02-24T09:11:18.258Z,1046.1
2018-02-24T09:12:18.242Z,1046.36
2018-02-24T09:13:18.227Z,1046.11
2018-02-24T09:14:18.212Z,1046.06
2018-02-24T09:15:18.199Z,1046.15
2018-02-24T09:16:18.178Z,1045.95
2018-02-24T09:17:18.161Z,1046.1
2018-02-24T09:18:18.143Z,1046.2
2018-02-24T09:19:18.131Z,1046.25
2018-02-24T09:20:18.112Z,1046.35
2018-02-24T09:21:18.099Z,1046.54
2018-02-24T09:22:18.082Z,1046.49
2018-02-24T09:23:18.068Z,1046.71
2018-02-24T09:24:18.049Z,1046.47
2018-02-24T09:25:18.097Z,1046.44
2018-02-24T09:26:18.017Z,1046.58
2018-02-24T09:27:18.009Z,1046.31
2018-02-24T09:28:17.986Z,1046.35
2018-02-24T09:29:17.972Z,1046.24
2018-02-24T09:30:17.955Z,1046.15
2018-02-24T09:31:17.938Z,1046.17
2018-02-24T09:32:17.925Z,1046.08
2018-02-24T09:33:17.909Z,1045.91
2018-02-24T09:34:17.894Z,1045.93
2018-02-24T09:35:17.880Z,1045.99
2018-02-24T09:36:17.859Z,1046.05
2018-02-24T09:37:17.846Z,1046.04
2018-02-24T09:38:17.830Z,1046.1
2018-02-24T09:39:17.812Z,1046.28
2018-02-24T09:40:17.798Z,1046.09
2018-02-24T09:41:17.783Z,1046.18
2018-02-24T09:42:17.765Z,1046.19
2018-02-24T09:43:17.748Z,1046.3
2018-02-24T09:44:17.736Z,1046.43
2018-02-24T09:45:17.719Z,1046.46
2018-02-24T09:46:17.758Z,1046.76
2018-02-24T09:47:17.687Z,1046.66
2018-02-24T09:48:17.673Z,1046.73
2018-02-24T09:49:17.655Z,1046.8
2018-02-24T09:50:17.638Z,1046.79
2018-02-24T09:51:17.622Z,1046.85
2018-02-24T09:52:17.608Z,1047.21
2018-02-24T09:53:17.635Z,1047.08
2018-02-24T09:54:17.575Z,1047.02
2018-02-24T09:55:17.561Z,1046.93
2018-02-24T09:56:17.546Z,1047
2018-02-24T09:57:17.528Z,1047
2018-02-24T09:58:17.513Z,1047.02
2018-02-24T09:59:17.501Z,1046.94
2018-02-24T10:00:17.478Z,1046.91
2018-02-24T10:01:17.461Z,1046.9
2018-02-24T10:02:17.447Z,1047.09
2018-02-24T10:03:17.428Z,1046.96
2018-02-24T10:04:17.413Z,1046.74
2018-02-24T10:05:17.398Z,1046.75
2018-02-24T10:06:17.380Z,1046.79
2018-02-24T10:07:17.364Z,1047.12
2018-02-24T10:08:17.347Z,1046.66
2018-02-24T10:09:17.331Z,1046.68
2018-02-24T10:10:17.321Z,1046.57
2018-02-24T10:11:17.341Z,1046.28
2018-02-24T10:12:17.282Z,1046.3
2018-02-24T10:13:17.270Z,1046.12
2018-02-24T10:14:17.251Z,1046.02
2018-02-24T10:15:17.236Z,1045.77
2018-02-24T10:16:17.219Z,1045.95
2018-02-24T10:17:17.205Z,1045.74
2018-02-24T10:18:17.186Z,1045.7
2018-02-24T10:19:17.173Z,1045.65
2018-02-24T10:20:17.158Z,1045.63
2018-02-24T10:21:17.140Z,1045.57
2018-02-24T10:22:17.127Z,1045.7
2018-02-24T10:23:17.107Z,1045.92
2018-02-24T10:24:17.092Z,1045.71
2018-02-24T10:25:17.081Z,1045.93
2018-02-24T10:26:17.062Z,1045.83
2018-02-24T10:27:17.047Z,1045.64
2018-02-24T10:28:17.030Z,1045.5
2018-02-24T10:29:17.022Z,1045.4
2018-02-24T10:30:17.003Z,1045.6
2018-02-24T10:31:16.989Z,1045.37
2018-02-24T10:32:16.969Z,1045.43
2018-02-24T10:33:16.957Z,1045.55
2018-02-24T10:34:16.939Z,1045.53
2018-02-24T10:35:16.923Z,1045.59
2018-02-24T10:36:16.911Z,1045.76
2018-02-24T10:37:16.896Z,1045.78
2018-02-24T10:38:16.877Z,1045.86
2018-02-24T10:39:16.865Z,1045.93
2018-02-24T10:40:16.847Z,1046.14
2018-02-24T10:41:16.834Z,1046.01
2018-02-24T10:42:16.826Z,1046.04
2018-02-24T10:43:16.800Z,1046.22
2018-02-24T10:44:16.785Z,1046.1
2018-02-24T10:45:16.769Z,1046.17
2018-02-24T10:46:16.754Z,1046.34
2018-02-24T10:47:16.738Z,1046.26
2018-02-24T10:48:16.726Z,1046.36
2018-02-24T10:49:16.707Z,1046.27
2018-02-24T10:50:16.692Z,1046.44
2018-02-24T10:51:16.680Z,1046.33
2018-02-24T10:52:16.661Z,1046.46
2018-02-24T10:53:16.644Z,1046.17
2018-02-24T10:54:16.633Z,1046.48
2018-02-24T10:55:16.614Z,1046.58
2018-02-24T10:56:16.601Z,1046.64
2018-02-24T10:57:16.583Z,1046.45
2018-02-24T10:58:16.570Z,1046.49
2018-02-24T10:59:16.554Z,1046.55
2018-02-24T11:00:16.537Z,1046.43
2018-02-24T11:01:16.524Z,1046.21
2018-02-24T11:02:16.506Z,1046.31
2018-02-24T11:03:16.491Z,1046.14
2018-02-24T11:04:16.472Z,1046.13
2018-02-24T11:05:16.459Z,1046.07
2018-02-24T11:06:16.444Z,1046.36
2018-02-24T11:07:16.427Z,1046.18
2018-02-24T11:08:16.411Z,1046.25
2018-02-24T11:09:16.393Z,1046.03
2018-02-24T11:10:16.383Z,1046.29
2018-02-24T11:11:16.369Z,1046.42
2018-02-24T11:12:16.348Z,1046.68
2018-02-24T11:13:16.330Z,1046.41
2018-02-24T11:14:16.318Z,1046.52
2018-02-24T11:15:16.297Z,1046.56
2018-02-24T11:16:16.285Z,1046.37
2018-02-24T11:17:16.268Z,1046.44
2018-02-24T11:18:16.253Z,1046.39
2018-02-24T11:19:16.236Z,1046.59
2018-02-24T11:20:16.218Z,1046.63
2018-02-24T11:21:16.202Z,1046.66
2018-02-24T11:22:16.191Z,1046.64
2018-02-24T11:23:16.172Z,1046.7
2018-02-24T11:24:16.153Z,1046.79
2018-02-24T11:25:16.136Z,1046.88
2018-02-24T11:26:16.123Z,1046.78
2018-02-24T11:27:16.105Z,1046.58
2018-02-24T11:28:16.092Z,1046.55
2018-02-24T11:29:16.076Z,1046.3
2018-02-24T11:30:16.059Z,1046.18
2018-02-24T11:31:16.075Z,1046.06
2018-02-24T11:32:16.025Z,1045.94
2018-02-24T11:33:16.016Z,1045.96
2018-02-24T11:34:15.992Z,1045.96
2018-02-24T11:35:16.033Z,1045.99
2018-02-24T11:36:15.963Z,1046.08
2018-02-24T11:37:15.945Z,1046.01
2018-02-24T11:38:15.933Z,1046
2018-02-24T11:39:15.914Z,1046.02
2018-02-24T11:40:15.897Z,1045.92
2018-02-24T11:41:15.887Z,1045.95
2018-02-24T11:42:15.869Z,1046.3
2018-02-24T11:43:15.853Z,1046.07
2018-02-24T11:44:15.836Z,1045.92
2018-02-24T11:45:15.819Z,1045.95
2018-02-24T11:46:15.803Z,1045.91
2018-02-24T11:47:15.786Z,1045.99
2018-02-24T11:48:15.771Z,1046.18
2018-02-24T11:49:15.756Z,1046.13
2018-02-24T11:50:15.744Z,1045.91
2018-02-24T11:51:15.724Z,1045.86
2018-02-24T11:52:15.708Z,1045.87
2018-02-24T11:53:15.693Z,1046.04
2018-02-24T11:54:15.678Z,1045.86
2018-02-24T11:55:15.668Z,1045.83
2018-02-24T11:56:15.648Z,1046.13
2018-02-24T11:57:15.631Z,1045.84
2018-02-24T11:58:15.618Z,1045.84
2018-02-24T11:59:15.599Z,1045.98
2018-02-24T12:00:15.588Z,1045.88
2018-02-24T12:01:15.568Z,1046.18
2018-02-24T12:02:15.805Z,1046.38
2018-02-24T12:03:15.537Z,1045.99
2018-02-24T12:04:15.525Z,1046.1
2018-02-24T12:05:15.509Z,1046.21
2018-02-24T12:06:15.489Z,1046.24
2018-02-24T12:07:15.475Z,1046.17
2018-02-24T12:08:15.459Z,1046.13